sensor_id;sensor_type;location;lat;lon;timestamp;P1;durP1;ratioP1;P2;durP2;ratioP2
1957;SDS011;979;51.076;13.748;2023-11-19T00:00:55;14.30;;;13.90;;
1957;SDS011;979;51.076;13.748;2023-11-19T00:03:53;14.40;;;14.10;;
1957;SDS011;979;51.076;13.748;2023-11-19T00:06:35;14.80;;;14.40;;
1957;SDS011;979;51.076;13.748;2023-11-19T00:09:37;14.40;;;14.10;;
1957;SDS011;979;51.076;13.748;2023-11-19T00:12:22;13.93;;;13.63;;
1957;SDS011;979;51.076;13.748;2023-11-19T00:14:59;14.90;;;14.50;;
1957;SDS011;979;51.076;13.748;2023-11-19T00:17:44;16.27;;;15.80;;
1957;SDS011;979;51.076;13.748;2023-11-19T00:20:33;13.80;;;13.50;;
1957;SDS011;979;51.076;13.748;2023-11-19T00:23:17;16.20;;;15.67;;
1957;SDS011;979;51.076;13.748;2023-11-19T00:26:06;14.50;;;14.20;;
1957;SDS011;979;51.076;13.748;2023-11-19T00:40:28;15.40;;;15.00;;
1957;SDS011;979;51.076;13.748;2023-11-19T01:12:45;18.40;;;17.70;;
1957;SDS011;979;51.076;13.748;2023-11-19T01:15:13;15.30;;;14.90;;
1957;SDS011;979;51.076;13.748;2023-11-19T01:17:45;15.77;;;15.37;;
1957;SDS011;979;51.076;13.748;2023-11-19T01:20:16;17.67;;;17.07;;
1957;SDS011;979;51.076;13.748;2023-11-19T01:22:44;15.70;;;15.30;;
1957;SDS011;979;51.076;13.748;2023-11-19T01:25:16;15.40;;;15.00;;
1957;SDS011;979;51.076;13.748;2023-11-19T01:27:46;15.77;;;15.37;;
1957;SDS011;979;51.076;13.748;2023-11-19T01:30:15;16.20;;;15.80;;
1957;SDS011;979;51.076;13.748;2023-11-19T01:32:43;16.43;;;16.03;;
1957;SDS011;979;51.076;13.748;2023-11-19T01:35:12;16.20;;;15.80;;
1957;SDS011;979;51.076;13.748;2023-11-19T01:37:43;16.10;;;15.70;;
1957;SDS011;979;51.076;13.748;2023-11-19T01:40:11;15.80;;;15.40;;
1957;SDS011;979;51.076;13.748;2023-11-19T01:42:51;15.50;;;15.10;;
1957;SDS011;979;51.076;13.748;2023-11-19T01:45:30;17.50;;;17.00;;
1957;SDS011;979;51.076;13.748;2023-11-19T01:48:20;15.60;;;15.20;;
1957;SDS011;979;51.076;13.748;2023-11-19T01:51:08;16.40;;;15.97;;
1957;SDS011;979;51.076;13.748;2023-11-19T01:53:37;15.77;;;15.37;;
1957;SDS011;979;51.076;13.748;2023-11-19T01:56:07;16.80;;;16.30;;
1957;SDS011;979;51.076;13.748;2023-11-19T01:58:39;15.90;;;15.50;;
1957;SDS011;979;51.076;13.748;2023-11-19T02:01:08;15.13;;;14.73;;
1957;SDS011;979;51.076;13.748;2023-11-19T02:03:39;15.93;;;15.53;;
1957;SDS011;979;51.076;13.748;2023-11-19T02:06:08;15.60;;;15.20;;
1957;SDS011;979;51.076;13.748;2023-11-19T02:08:38;15.70;;;15.30;;
1957;SDS011;979;51.076;13.748;2023-11-19T02:11:06;15.70;;;15.30;;
1957;SDS011;979;51.076;13.748;2023-11-19T02:13:35;16.27;;;15.87;;
1957;SDS011;979;51.076;13.748;2023-11-19T02:16:07;16.00;;;15.60;;
1957;SDS011;979;51.076;13.748;2023-11-19T02:18:38;15.80;;;15.40;;
1957;SDS011;979;51.076;13.748;2023-11-19T02:21:06;15.40;;;15.00;;
1957;SDS011;979;51.076;13.748;2023-11-19T02:23:37;15.43;;;15.03;;
1957;SDS011;979;51.076;13.748;2023-11-19T02:26:10;15.90;;;15.50;;
1957;SDS011;979;51.076;13.748;2023-11-19T02:28:43;15.80;;;15.40;;
1957;SDS011;979;51.076;13.748;2023-11-19T02:31:20;15.60;;;15.20;;
1957;SDS011;979;51.076;13.748;2023-11-19T02:33:49;15.83;;;15.43;;
1957;SDS011;979;51.076;13.748;2023-11-19T02:36:18;16.77;;;16.27;;
1957;SDS011;979;51.076;13.748;2023-11-19T02:38:48;16.60;;;16.10;;
1957;SDS011;979;51.076;13.748;2023-11-19T02:41:16;16.20;;;15.80;;
1957;SDS011;979;51.076;13.748;2023-11-19T02:43:45;16.10;;;15.70;;
1957;SDS011;979;51.076;13.748;2023-11-19T02:46:15;15.60;;;15.20;;
1957;SDS011;979;51.076;13.748;2023-11-19T02:48:52;16.10;;;15.70;;
1957;SDS011;979;51.076;13.748;2023-11-19T02:51:31;15.90;;;15.50;;
1957;SDS011;979;51.076;13.748;2023-11-19T02:54:13;16.70;;;16.20;;
1957;SDS011;979;51.076;13.748;2023-11-19T02:56:58;16.10;;;15.70;;
1957;SDS011;979;51.076;13.748;2023-11-19T02:59:35;16.10;;;15.70;;
1957;SDS011;979;51.076;13.748;2023-11-19T03:02:17;19.33;;;18.67;;
1957;SDS011;979;51.076;13.748;2023-11-19T03:04:45;16.67;;;16.27;;
1957;SDS011;979;51.076;13.748;2023-11-19T03:07:14;16.07;;;15.67;;
1957;SDS011;979;51.076;13.748;2023-11-19T03:09:42;16.20;;;15.80;;
1957;SDS011;979;51.076;13.748;2023-11-19T03:12:10;16.20;;;15.80;;
1957;SDS011;979;51.076;13.748;2023-11-19T03:14:40;16.30;;;15.90;;
1957;SDS011;979;51.076;13.748;2023-11-19T03:17:08;15.70;;;15.30;;
1957;SDS011;979;51.076;13.748;2023-11-19T03:19:37;15.70;;;15.30;;
1957;SDS011;979;51.076;13.748;2023-11-19T03:22:05;16.73;;;16.13;;
1957;SDS011;979;51.076;13.748;2023-11-19T03:24:33;16.10;;;15.70;;
1957;SDS011;979;51.076;13.748;2023-11-19T03:27:02;15.90;;;15.50;;
1957;SDS011;979;51.076;13.748;2023-11-19T03:29:30;15.27;;;14.87;;
1957;SDS011;979;51.076;13.748;2023-11-19T03:32:15;16.00;;;15.60;;
1957;SDS011;979;51.076;13.748;2023-11-19T03:35:04;15.80;;;15.40;;
1957;SDS011;979;51.076;13.748;2023-11-19T03:37:50;15.90;;;15.50;;
1957;SDS011;979;51.076;13.748;2023-11-19T03:40:31;15.90;;;15.50;;
1957;SDS011;979;51.076;13.748;2023-11-19T03:43:13;15.90;;;15.50;;
1957;SDS011;979;51.076;13.748;2023-11-19T03:45:57;16.00;;;15.60;;
1957;SDS011;979;51.076;13.748;2023-11-19T03:48:40;15.60;;;15.20;;
1957;SDS011;979;51.076;13.748;2023-11-19T03:51:18;16.00;;;15.60;;
1957;SDS011;979;51.076;13.748;2023-11-19T03:54:18;15.70;;;15.30;;
1957;SDS011;979;51.076;13.748;2023-11-19T03:57:08;15.80;;;15.40;;
1957;SDS011;979;51.076;13.748;2023-11-19T03:59:40;16.10;;;15.70;;
1957;SDS011;979;51.076;13.748;2023-11-19T04:02:08;16.00;;;15.60;;
1957;SDS011;979;51.076;13.748;2023-11-19T04:04:38;16.10;;;15.70;;
1957;SDS011;979;51.076;13.748;2023-11-19T04:07:07;16.60;;;16.10;;
1957;SDS011;979;51.076;13.748;2023-11-19T04:09:35;16.50;;;16.10;;
1957;SDS011;979;51.076;13.748;2023-11-19T04:12:04;16.37;;;15.90;;
1957;SDS011;979;51.076;13.748;2023-11-19T04:14:33;17.87;;;17.30;;
1957;SDS011;979;51.076;13.748;2023-11-19T04:17:01;16.67;;;16.17;;
1957;SDS011;979;51.076;13.748;2023-11-19T04:19:30;16.00;;;15.60;;
1957;SDS011;979;51.076;13.748;2023-11-19T04:22:03;16.10;;;15.70;;
1957;SDS011;979;51.076;13.748;2023-11-19T04:24:31;16.00;;;15.60;;
1957;SDS011;979;51.076;13.748;2023-11-19T04:26:59;16.30;;;15.90;;
1957;SDS011;979;51.076;13.748;2023-11-19T04:29:28;15.90;;;15.50;;
1957;SDS011;979;51.076;13.748;2023-11-19T04:31:57;16.20;;;15.80;;
1957;SDS011;979;51.076;13.748;2023-11-19T04:34:27;16.10;;;15.70;;
1957;SDS011;979;51.076;13.748;2023-11-19T04:36:55;15.80;;;15.40;;
1957;SDS011;979;51.076;13.748;2023-11-19T04:39:25;15.67;;;15.27;;
1957;SDS011;979;51.076;13.748;2023-11-19T04:42:00;15.20;;;14.80;;
1957;SDS011;979;51.076;13.748;2023-11-19T04:44:29;15.30;;;14.90;;
1957;SDS011;979;51.076;13.748;2023-11-19T04:46:57;16.00;;;15.60;;
1957;SDS011;979;51.076;13.748;2023-11-19T04:49:25;15.60;;;15.20;;
1957;SDS011;979;51.076;13.748;2023-11-19T04:51:54;15.90;;;15.50;;
1957;SDS011;979;51.076;13.748;2023-11-19T04:54:26;19.30;;;18.50;;
1957;SDS011;979;51.076;13.748;2023-11-19T04:56:54;16.30;;;15.80;;
1957;SDS011;979;51.076;13.748;2023-11-19T04:59:22;16.40;;;15.90;;
1957;SDS011;979;51.076;13.748;2023-11-19T05:01:51;17.20;;;16.60;;
1957;SDS011;979;51.076;13.748;2023-11-19T05:04:36;16.10;;;15.63;;
1957;SDS011;979;51.076;13.748;2023-11-19T05:07:16;16.37;;;15.87;;
1957;SDS011;979;51.076;13.748;2023-11-19T05:09:55;16.60;;;16.10;;
1957;SDS011;979;51.076;13.748;2023-11-19T05:12:44;17.00;;;16.50;;
1957;SDS011;979;51.076;13.748;2023-11-19T05:15:35;16.43;;;16.03;;
1957;SDS011;979;51.076;13.748;2023-11-19T05:18:13;17.50;;;17.00;;
1957;SDS011;979;51.076;13.748;2023-11-19T05:21:01;16.77;;;16.27;;
1957;SDS011;979;51.076;13.748;2023-11-19T05:23:38;17.53;;;16.93;;
1957;SDS011;979;51.076;13.748;2023-11-19T05:26:21;16.50;;;16.00;;
1957;SDS011;979;51.076;13.748;2023-11-19T05:28:50;16.90;;;16.40;;
1957;SDS011;979;51.076;13.748;2023-11-19T05:31:18;16.80;;;16.30;;
1957;SDS011;979;51.076;13.748;2023-11-19T05:33:47;16.97;;;16.47;;
1957;SDS011;979;51.076;13.748;2023-11-19T05:36:15;16.93;;;16.43;;
1957;SDS011;979;51.076;13.748;2023-11-19T05:38:46;17.00;;;16.30;;
1957;SDS011;979;51.076;13.748;2023-11-19T05:41:14;15.53;;;15.13;;
1957;SDS011;979;51.076;13.748;2023-11-19T05:43:44;16.30;;;15.80;;
1957;SDS011;979;51.076;13.748;2023-11-19T05:46:12;15.70;;;15.30;;
1957;SDS011;979;51.076;13.748;2023-11-19T05:48:45;17.20;;;16.70;;
1957;SDS011;979;51.076;13.748;2023-11-19T05:51:14;17.43;;;16.93;;
1957;SDS011;979;51.076;13.748;2023-11-19T05:53:42;16.60;;;16.10;;
1957;SDS011;979;51.076;13.748;2023-11-19T05:56:12;17.40;;;16.90;;
1957;SDS011;979;51.076;13.748;2023-11-19T05:58:43;16.47;;;15.97;;
1957;SDS011;979;51.076;13.748;2023-11-19T06:01:14;19.93;;;19.03;;
1957;SDS011;979;51.076;13.748;2023-11-19T06:03:43;17.00;;;16.50;;
1957;SDS011;979;51.076;13.748;2023-11-19T06:06:16;16.60;;;16.10;;
1957;SDS011;979;51.076;13.748;2023-11-19T06:08:44;16.33;;;15.93;;
1957;SDS011;979;51.076;13.748;2023-11-19T06:11:15;16.73;;;16.23;;
1957;SDS011;979;51.076;13.748;2023-11-19T06:13:50;16.63;;;16.13;;
1957;SDS011;979;51.076;13.748;2023-11-19T06:16:18;16.53;;;16.03;;
1957;SDS011;979;51.076;13.748;2023-11-19T06:18:47;16.57;;;16.07;;
1957;SDS011;979;51.076;13.748;2023-11-19T06:21:15;17.10;;;16.50;;
1957;SDS011;979;51.076;13.748;2023-11-19T06:23:46;17.53;;;17.03;;
1957;SDS011;979;51.076;13.748;2023-11-19T06:26:15;16.60;;;16.10;;
1957;SDS011;979;51.076;13.748;2023-11-19T06:28:43;19.10;;;18.50;;
1957;SDS011;979;51.076;13.748;2023-11-19T06:31:14;17.07;;;16.57;;
1957;SDS011;979;51.076;13.748;2023-11-19T06:33:43;17.33;;;16.83;;
1957;SDS011;979;51.076;13.748;2023-11-19T06:36:13;17.37;;;16.87;;
1957;SDS011;979;51.076;13.748;2023-11-19T06:38:43;16.60;;;16.10;;
1957;SDS011;979;51.076;13.748;2023-11-19T06:41:14;16.77;;;16.27;;
1957;SDS011;979;51.076;13.748;2023-11-19T06:43:42;17.73;;;17.23;;
1957;SDS011;979;51.076;13.748;2023-11-19T06:46:17;17.00;;;16.50;;
1957;SDS011;979;51.076;13.748;2023-11-19T06:48:48;16.80;;;16.30;;
1957;SDS011;979;51.076;13.748;2023-11-19T06:51:16;16.07;;;15.67;;
1957;SDS011;979;51.076;13.748;2023-11-19T06:53:47;16.60;;;16.10;;
1957;SDS011;979;51.076;13.748;2023-11-19T06:56:25;16.60;;;16.10;;
1957;SDS011;979;51.076;13.748;2023-11-19T06:58:54;16.60;;;16.10;;
1957;SDS011;979;51.076;13.748;2023-11-19T07:01:23;16.90;;;16.40;;
1957;SDS011;979;51.076;13.748;2023-11-19T07:08:08;16.60;;;16.10;;
1957;SDS011;979;51.076;13.748;2023-11-19T07:10:48;16.53;;;16.03;;
1957;SDS011;979;51.076;13.748;2023-11-19T07:13:16;16.50;;;16.00;;
1957;SDS011;979;51.076;13.748;2023-11-19T07:16:01;15.93;;;15.53;;
1957;SDS011;979;51.076;13.748;2023-11-19T07:18:44;16.80;;;16.30;;
1957;SDS011;979;51.076;13.748;2023-11-19T07:21:12;16.40;;;15.90;;
1957;SDS011;979;51.076;13.748;2023-11-19T07:23:41;15.83;;;15.43;;
1957;SDS011;979;51.076;13.748;2023-11-19T07:26:09;16.00;;;15.60;;
1957;SDS011;979;51.076;13.748;2023-11-19T07:28:37;16.10;;;15.70;;
1957;SDS011;979;51.076;13.748;2023-11-19T07:31:06;16.20;;;15.80;;
1957;SDS011;979;51.076;13.748;2023-11-19T07:33:35;16.00;;;15.60;;
1957;SDS011;979;51.076;13.748;2023-11-19T07:36:05;15.93;;;15.53;;
1957;SDS011;979;51.076;13.748;2023-11-19T07:38:36;16.30;;;15.80;;
1957;SDS011;979;51.076;13.748;2023-11-19T07:41:05;16.27;;;15.77;;
1957;SDS011;979;51.076;13.748;2023-11-19T07:43:36;15.90;;;15.50;;
1957;SDS011;979;51.076;13.748;2023-11-19T07:46:05;16.60;;;16.20;;
1957;SDS011;979;51.076;13.748;2023-11-19T07:48:38;16.20;;;15.80;;
1957;SDS011;979;51.076;13.748;2023-11-19T07:51:07;16.30;;;15.80;;
1957;SDS011;979;51.076;13.748;2023-11-19T07:53:36;16.50;;;16.00;;
1957;SDS011;979;51.076;13.748;2023-11-19T07:56:05;15.60;;;15.20;;
1957;SDS011;979;51.076;13.748;2023-11-19T07:58:33;15.90;;;15.50;;
1957;SDS011;979;51.076;13.748;2023-11-19T08:01:03;16.00;;;15.60;;
1957;SDS011;979;51.076;13.748;2023-11-19T08:03:46;16.27;;;15.77;;
1957;SDS011;979;51.076;13.748;2023-11-19T08:06:19;16.40;;;15.90;;
1957;SDS011;979;51.076;13.748;2023-11-19T08:08:53;16.00;;;15.60;;
1957;SDS011;979;51.076;13.748;2023-11-19T08:11:35;17.07;;;16.47;;
1957;SDS011;979;51.076;13.748;2023-11-19T08:35:55;16.20;;;15.80;;
1957;SDS011;979;51.076;13.748;2023-11-19T08:38:29;16.70;;;16.20;;
1957;SDS011;979;51.076;13.748;2023-11-19T08:41:19;16.23;;;15.83;;
1957;SDS011;979;51.076;13.748;2023-11-19T08:43:55;16.20;;;15.80;;
1957;SDS011;979;51.076;13.748;2023-11-19T08:46:38;16.80;;;16.30;;
1957;SDS011;979;51.076;13.748;2023-11-19T08:49:13;16.50;;;16.10;;
1957;SDS011;979;51.076;13.748;2023-11-19T09:14:17;19.23;;;18.53;;
1957;SDS011;979;51.076;13.748;2023-11-19T09:16:58;18.70;;;18.10;;
1957;SDS011;979;51.076;13.748;2023-11-19T09:19:27;18.27;;;17.67;;
1957;SDS011;979;51.076;13.748;2023-11-19T09:21:58;18.80;;;18.20;;
1957;SDS011;979;51.076;13.748;2023-11-19T09:24:37;18.30;;;17.70;;
1957;SDS011;979;51.076;13.748;2023-11-19T09:27:22;18.40;;;17.80;;
1957;SDS011;979;51.076;13.748;2023-11-19T09:30:08;18.13;;;17.53;;
1957;SDS011;979;51.076;13.748;2023-11-19T09:33:02;18.00;;;17.40;;
1957;SDS011;979;51.076;13.748;2023-11-19T09:35:43;18.17;;;17.57;;
1957;SDS011;979;51.076;13.748;2023-11-19T09:38:12;18.10;;;17.50;;
1957;SDS011;979;51.076;13.748;2023-11-19T09:40:40;17.80;;;17.20;;
1957;SDS011;979;51.076;13.748;2023-11-19T09:43:09;16.80;;;16.30;;
1957;SDS011;979;51.076;13.748;2023-11-19T09:45:42;17.30;;;16.80;;
1957;SDS011;979;51.076;13.748;2023-11-19T09:48:16;17.10;;;16.60;;
1957;SDS011;979;51.076;13.748;2023-11-19T09:50:48;16.50;;;16.00;;
1957;SDS011;979;51.076;13.748;2023-11-19T09:53:18;16.33;;;15.83;;
1957;SDS011;979;51.076;13.748;2023-11-19T09:55:47;16.40;;;15.90;;
1957;SDS011;979;51.076;13.748;2023-11-19T09:58:16;15.70;;;15.30;;
1957;SDS011;979;51.076;13.748;2023-11-19T10:00:46;15.50;;;15.10;;
1957;SDS011;979;51.076;13.748;2023-11-19T10:03:35;16.73;;;16.23;;
1957;SDS011;979;51.076;13.748;2023-11-19T10:06:06;15.00;;;14.60;;
1957;SDS011;979;51.076;13.748;2023-11-19T10:08:36;15.70;;;15.30;;
1957;SDS011;979;51.076;13.748;2023-11-19T10:11:05;16.23;;;15.73;;
1957;SDS011;979;51.076;13.748;2023-11-19T10:13:34;16.20;;;15.70;;
1957;SDS011;979;51.076;13.748;2023-11-19T10:16:09;16.53;;;16.03;;
1957;SDS011;979;51.076;13.748;2023-11-19T10:18:42;16.43;;;15.93;;
1957;SDS011;979;51.076;13.748;2023-11-19T10:21:12;16.70;;;16.10;;
1957;SDS011;979;51.076;13.748;2023-11-19T10:23:50;16.33;;;15.83;;
1957;SDS011;979;51.076;13.748;2023-11-19T10:26:20;16.90;;;16.40;;
1957;SDS011;979;51.076;13.748;2023-11-19T10:28:49;16.80;;;16.30;;
1957;SDS011;979;51.076;13.748;2023-11-19T10:31:19;15.10;;;14.70;;
1957;SDS011;979;51.076;13.748;2023-11-19T10:33:52;15.70;;;15.30;;
1957;SDS011;979;51.076;13.748;2023-11-19T10:36:21;15.03;;;14.67;;
1957;SDS011;979;51.076;13.748;2023-11-19T10:38:54;14.90;;;14.50;;
1957;SDS011;979;51.076;13.748;2023-11-19T10:41:26;15.87;;;15.33;;
1957;SDS011;979;51.076;13.748;2023-11-19T10:43:55;15.20;;;14.80;;
1957;SDS011;979;51.076;13.748;2023-11-19T10:49:35;15.30;;;14.90;;
1957;SDS011;979;51.076;13.748;2023-11-19T10:52:12;15.50;;;15.10;;
1957;SDS011;979;51.076;13.748;2023-11-19T10:54:56;15.00;;;14.60;;
1957;SDS011;979;51.076;13.748;2023-11-19T10:57:59;15.53;;;15.13;;
1957;SDS011;979;51.076;13.748;2023-11-19T11:00:42;15.20;;;14.80;;
1957;SDS011;979;51.076;13.748;2023-11-19T11:06:28;15.50;;;15.10;;
1957;SDS011;979;51.076;13.748;2023-11-19T11:09:06;15.10;;;14.70;;
1957;SDS011;979;51.076;13.748;2023-11-19T11:11:53;15.93;;;15.53;;
1957;SDS011;979;51.076;13.748;2023-11-19T11:14:42;15.60;;;15.10;;
1957;SDS011;979;51.076;13.748;2023-11-19T11:17:30;15.10;;;14.60;;
1957;SDS011;979;51.076;13.748;2023-11-19T11:20:30;16.63;;;16.00;;
1957;SDS011;979;51.076;13.748;2023-11-19T11:29:24;16.40;;;15.67;;
1957;SDS011;979;51.076;13.748;2023-11-19T11:32:04;15.67;;;15.17;;
1957;SDS011;979;51.076;13.748;2023-11-19T11:34:48;14.87;;;14.37;;
1957;SDS011;979;51.076;13.748;2023-11-19T11:37:42;14.83;;;14.33;;
1957;SDS011;979;51.076;13.748;2023-11-19T11:40:14;14.90;;;14.40;;
1957;SDS011;979;51.076;13.748;2023-11-19T11:42:44;15.23;;;14.83;;
1957;SDS011;979;51.076;13.748;2023-11-19T11:45:15;16.77;;;16.17;;
1957;SDS011;979;51.076;13.748;2023-11-19T11:48:19;16.30;;;15.30;;
1957;SDS011;979;51.076;13.748;2023-11-19T11:51:08;16.63;;;16.03;;
1957;SDS011;979;51.076;13.748;2023-11-19T11:53:46;17.53;;;16.83;;
1957;SDS011;979;51.076;13.748;2023-11-19T11:56:20;16.90;;;16.20;;
1957;SDS011;979;51.076;13.748;2023-11-19T11:59:00;17.10;;;16.50;;
1957;SDS011;979;51.076;13.748;2023-11-19T12:02:01;17.77;;;16.87;;
1957;SDS011;979;51.076;13.748;2023-11-19T12:04:45;16.80;;;16.10;;
1957;SDS011;979;51.076;13.748;2023-11-19T12:10:36;16.07;;;15.47;;
1957;SDS011;979;51.076;13.748;2023-11-19T12:13:12;16.83;;;16.23;;
1957;SDS011;979;51.076;13.748;2023-11-19T12:16:07;16.40;;;15.60;;
1957;SDS011;979;51.076;13.748;2023-11-19T12:18:43;16.77;;;16.07;;
1957;SDS011;979;51.076;13.748;2023-11-19T12:21:12;16.33;;;15.63;;
1957;SDS011;979;51.076;13.748;2023-11-19T12:23:58;16.57;;;16.03;;
1957;SDS011;979;51.076;13.748;2023-11-19T12:26:35;18.40;;;17.50;;
1957;SDS011;979;51.076;13.748;2023-11-19T12:29:05;18.07;;;17.00;;
1957;SDS011;979;51.076;13.748;2023-11-19T12:31:35;17.13;;;16.43;;
1957;SDS011;979;51.076;13.748;2023-11-19T12:34:05;18.10;;;17.20;;
1957;SDS011;979;51.076;13.748;2023-11-19T12:36:41;18.37;;;17.27;;
1957;SDS011;979;51.076;13.748;2023-11-19T12:39:10;16.17;;;15.57;;
1957;SDS011;979;51.076;13.748;2023-11-19T12:41:52;17.70;;;16.73;;
1957;SDS011;979;51.076;13.748;2023-11-19T12:44:21;17.17;;;16.37;;
1957;SDS011;979;51.076;13.748;2023-11-19T12:47:02;16.93;;;16.23;;
1957;SDS011;979;51.076;13.748;2023-11-19T12:49:32;16.43;;;15.63;;
1957;SDS011;979;51.076;13.748;2023-11-19T12:52:00;17.00;;;16.20;;
1957;SDS011;979;51.076;13.748;2023-11-19T12:54:34;16.97;;;16.17;;
1957;SDS011;979;51.076;13.748;2023-11-19T12:57:04;16.20;;;15.50;;
1957;SDS011;979;51.076;13.748;2023-11-19T12:59:33;17.13;;;16.27;;
1957;SDS011;979;51.076;13.748;2023-11-19T13:02:01;16.20;;;15.50;;
1957;SDS011;979;51.076;13.748;2023-11-19T13:04:34;15.87;;;15.17;;
1957;SDS011;979;51.076;13.748;2023-11-19T13:07:03;15.77;;;15.07;;
1957;SDS011;979;51.076;13.748;2023-11-19T13:09:32;16.20;;;15.60;;
1957;SDS011;979;51.076;13.748;2023-11-19T13:12:11;15.10;;;14.63;;
1957;SDS011;979;51.076;13.748;2023-11-19T13:14:43;16.37;;;15.67;;
1957;SDS011;979;51.076;13.748;2023-11-19T13:17:13;15.80;;;15.20;;
1957;SDS011;979;51.076;13.748;2023-11-19T13:19:42;16.17;;;15.57;;
1957;SDS011;979;51.076;13.748;2023-11-19T13:22:12;16.63;;;15.93;;
1957;SDS011;979;51.076;13.748;2023-11-19T13:24:40;14.90;;;13.80;;
1957;SDS011;979;51.076;13.748;2023-11-19T13:27:14;15.97;;;15.27;;
1957;SDS011;979;51.076;13.748;2023-11-19T13:29:42;17.20;;;16.10;;
1957;SDS011;979;51.076;13.748;2023-11-19T13:32:10;16.53;;;15.63;;
1957;SDS011;979;51.076;13.748;2023-11-19T13:34:44;16.70;;;15.80;;
1957;SDS011;979;51.076;13.748;2023-11-19T13:37:12;17.93;;;16.83;;
1957;SDS011;979;51.076;13.748;2023-11-19T13:39:41;17.27;;;16.50;;
1957;SDS011;979;51.076;13.748;2023-11-19T13:42:10;17.40;;;16.40;;
1957;SDS011;979;51.076;13.748;2023-11-19T13:44:42;17.57;;;16.47;;
1957;SDS011;979;51.076;13.748;2023-11-19T13:47:10;16.13;;;15.20;;
1957;SDS011;979;51.076;13.748;2023-11-19T13:49:40;17.10;;;15.97;;
1957;SDS011;979;51.076;13.748;2023-11-19T13:52:08;17.23;;;16.00;;
1957;SDS011;979;51.076;13.748;2023-11-19T13:54:37;18.17;;;16.80;;
1957;SDS011;979;51.076;13.748;2023-11-19T13:57:06;16.17;;;14.90;;
1957;SDS011;979;51.076;13.748;2023-11-19T13:59:40;17.40;;;16.20;;
1957;SDS011;979;51.076;13.748;2023-11-19T14:02:09;17.73;;;16.40;;
1957;SDS011;979;51.076;13.748;2023-11-19T14:04:38;19.33;;;16.73;;
1957;SDS011;979;51.076;13.748;2023-11-19T14:07:06;17.13;;;16.00;;
1957;SDS011;979;51.076;13.748;2023-11-19T14:09:37;18.00;;;16.63;;
1957;SDS011;979;51.076;13.748;2023-11-19T14:12:07;18.03;;;16.77;;
1957;SDS011;979;51.076;13.748;2023-11-19T14:14:36;16.10;;;15.30;;
1957;SDS011;979;51.076;13.748;2023-11-19T14:17:07;17.97;;;16.77;;
1957;SDS011;979;51.076;13.748;2023-11-19T14:19:40;16.87;;;15.60;;
1957;SDS011;979;51.076;13.748;2023-11-19T14:22:08;17.53;;;16.63;;
1957;SDS011;979;51.076;13.748;2023-11-19T14:24:37;16.53;;;15.50;;
1957;SDS011;979;51.076;13.748;2023-11-19T14:27:09;16.63;;;15.23;;
1957;SDS011;979;51.076;13.748;2023-11-19T14:29:37;16.37;;;15.27;;
1957;SDS011;979;51.076;13.748;2023-11-19T14:32:07;16.30;;;15.07;;
1957;SDS011;979;51.076;13.748;2023-11-19T14:34:36;16.20;;;15.20;;
1957;SDS011;979;51.076;13.748;2023-11-19T14:37:04;17.47;;;16.00;;
1957;SDS011;979;51.076;13.748;2023-11-19T14:39:33;15.57;;;14.87;;
1957;SDS011;979;51.076;13.748;2023-11-19T14:42:01;15.60;;;14.60;;
1957;SDS011;979;51.076;13.748;2023-11-19T14:44:34;16.20;;;15.43;;
1957;SDS011;979;51.076;13.748;2023-11-19T14:47:02;16.40;;;15.30;;
1957;SDS011;979;51.076;13.748;2023-11-19T14:49:33;17.03;;;15.93;;
1957;SDS011;979;51.076;13.748;2023-11-19T14:52:03;17.20;;;15.90;;
1957;SDS011;979;51.076;13.748;2023-11-19T14:54:34;17.87;;;16.60;;
1957;SDS011;979;51.076;13.748;2023-11-19T14:57:05;16.83;;;15.73;;
1957;SDS011;979;51.076;13.748;2023-11-19T14:59:34;17.30;;;15.70;;
1957;SDS011;979;51.076;13.748;2023-11-19T15:08:10;16.07;;;14.80;;
1957;SDS011;979;51.076;13.748;2023-11-19T15:10:46;15.63;;;14.63;;
1957;SDS011;979;51.076;13.748;2023-11-19T15:13:17;16.47;;;15.27;;
1957;SDS011;979;51.076;13.748;2023-11-19T15:21:48;16.80;;;15.80;;
1957;SDS011;979;51.076;13.748;2023-11-19T15:27:05;19.83;;;18.30;;
1957;SDS011;979;51.076;13.748;2023-11-19T15:34:05;18.60;;;17.43;;
1957;SDS011;979;51.076;13.748;2023-11-19T15:42:51;16.50;;;15.30;;
1957;SDS011;979;51.076;13.748;2023-11-19T15:45:39;18.33;;;16.60;;
1957;SDS011;979;51.076;13.748;2023-11-19T15:58:29;13.30;;;13.00;;
1957;SDS011;979;51.076;13.748;2023-11-19T16:01:01;13.83;;;13.53;;
1957;SDS011;979;51.076;13.748;2023-11-19T16:03:34;12.67;;;12.37;;
1957;SDS011;979;51.076;13.748;2023-11-19T16:06:28;13.57;;;13.27;;
1957;SDS011;979;51.076;13.748;2023-11-19T16:20:27;13.30;;;13.00;;
1957;SDS011;979;51.076;13.748;2023-11-19T16:23:01;13.00;;;12.70;;
1957;SDS011;979;51.076;13.748;2023-11-19T16:25:33;13.00;;;12.70;;
1957;SDS011;979;51.076;13.748;2023-11-19T16:28:03;13.10;;;12.80;;
1957;SDS011;979;51.076;13.748;2023-11-19T16:30:34;13.30;;;13.00;;
1957;SDS011;979;51.076;13.748;2023-11-19T16:43:35;13.80;;;13.50;;
1957;SDS011;979;51.076;13.748;2023-11-19T16:46:04;13.90;;;13.60;;
1957;SDS011;979;51.076;13.748;2023-11-19T16:48:36;13.20;;;12.90;;
1957;SDS011;979;51.076;13.748;2023-11-19T16:51:08;13.50;;;13.20;;
1957;SDS011;979;51.076;13.748;2023-11-19T16:53:43;13.13;;;12.83;;
1957;SDS011;979;51.076;13.748;2023-11-19T16:56:13;13.20;;;12.90;;
1957;SDS011;979;51.076;13.748;2023-11-19T16:58:43;13.20;;;12.90;;
1957;SDS011;979;51.076;13.748;2023-11-19T17:01:12;13.33;;;13.03;;
1957;SDS011;979;51.076;13.748;2023-11-19T17:03:41;12.10;;;11.90;;
1957;SDS011;979;51.076;13.748;2023-11-19T17:06:10;12.63;;;12.33;;
1957;SDS011;979;51.076;13.748;2023-11-19T17:08:39;12.20;;;12.00;;
1957;SDS011;979;51.076;13.748;2023-11-19T17:11:08;13.60;;;13.30;;
1957;SDS011;979;51.076;13.748;2023-11-19T17:13:39;14.00;;;13.70;;
1957;SDS011;979;51.076;13.748;2023-11-19T17:16:10;18.97;;;17.70;;
1957;SDS011;979;51.076;13.748;2023-11-19T17:18:38;18.37;;;17.13;;
1957;SDS011;979;51.076;13.748;2023-11-19T17:21:09;16.23;;;15.17;;
1957;SDS011;979;51.076;13.748;2023-11-19T17:23:37;17.77;;;16.60;;
1957;SDS011;979;51.076;13.748;2023-11-19T17:26:06;16.77;;;15.77;;
1957;SDS011;979;51.076;13.748;2023-11-19T17:28:35;14.57;;;14.27;;
1957;SDS011;979;51.076;13.748;2023-11-19T17:31:05;13.37;;;13.07;;
1957;SDS011;979;51.076;13.748;2023-11-19T17:33:35;16.40;;;15.50;;
1957;SDS011;979;51.076;13.748;2023-11-19T17:36:04;16.03;;;14.77;;
1957;SDS011;979;51.076;13.748;2023-11-19T17:38:39;16.60;;;15.60;;
1957;SDS011;979;51.076;13.748;2023-11-19T17:41:33;18.33;;;16.70;;
1957;SDS011;979;51.076;13.748;2023-11-19T17:44:02;18.00;;;16.50;;
1957;SDS011;979;51.076;13.748;2023-11-19T17:46:30;18.50;;;17.43;;
1957;SDS011;979;51.076;13.748;2023-11-19T17:49:00;17.87;;;16.90;;
1957;SDS011;979;51.076;13.748;2023-11-19T17:51:29;18.13;;;17.00;;
1957;SDS011;979;51.076;13.748;2023-11-19T17:53:58;17.37;;;16.20;;
1957;SDS011;979;51.076;13.748;2023-11-19T17:56:28;13.70;;;13.40;;
1957;SDS011;979;51.076;13.748;2023-11-19T17:58:59;14.77;;;14.07;;
1957;SDS011;979;51.076;13.748;2023-11-19T18:01:26;15.70;;;14.90;;
1957;SDS011;979;51.076;13.748;2023-11-19T18:03:57;16.63;;;15.37;;
1957;SDS011;979;51.076;13.748;2023-11-19T18:06:30;15.73;;;14.70;;
1957;SDS011;979;51.076;13.748;2023-11-19T18:09:00;15.50;;;14.40;;